^^
Station Historical Data
Daily Summary for March 29, 2017 Units:  Both    English   Metric
« Previous Day
Next Day »
Daily Weekly Monthly Yearly Custom
  High: Low: Average:
Temperature: 85.3 °F /  29.6 °C 58.5 °F /  14.7 °C 71.2 °F /  21.8 °C
Dew Point: 54.0 °F /  12.2 °C 45.7 °F /  7.6 °C 49.7 °F /  9.8 °C
Humidity: 76% 26% 50%
Wind Speed: 15.0mph /  24.1km/h - 1.8mph /  2.9km/h
Wind Gust: 15.0mph /  24.1km/h - -
Wind- - East
Pressure: 30.34 in /  1027.3 hPa 29.90 in /  1012.4 hPa -
Precipitation: 0.00 in /  0 mm    
Historical Graphs
 
 
Tabular Data for March 29, 2017
Time Temperature Dew Point Pressure Wind Wind Speed Wind Gust Humidity Rainfall Rate (Hourly) solar Conditions
00:05 64.8 °F /  18.2 °C 54.0 °F /  12.2 °C 29.91in /  1012.8hPa NE 0.9mph /  1.4km/h 4.0mph /  6.4km/h 68% 0.00in /  0mm 0.0 W/m2
00:11 64.8 °F /  18.2 °C 53.6 °F /  12 °C 29.92in /  1013.1hPa ENE 4.9mph /  7.9km/h 5.0mph /  8km/h 67% 0.00in /  0mm 0.0 W/m2
00:17 65.1 °F /  18.4 °C 54.0 °F /  12.2 °C 29.91in /  1012.8hPa ESE 2.0mph /  3.2km/h 6.0mph /  9.7km/h 67% 0.00in /  0mm 0.0 W/m2
00:23 65.1 °F /  18.4 °C 53.4 °F /  11.9 °C 29.92in /  1013.1hPa ENE 2.0mph /  3.2km/h 3.0mph /  4.8km/h 66% 0.00in /  0mm 0.0 W/m2
00:29 65.3 °F /  18.5 °C 53.6 °F /  12 °C 29.92in /  1013.1hPa NE 0.9mph /  1.4km/h 2.0mph /  3.2km/h 66% 0.00in /  0mm 0.0 W/m2
00:36 65.3 °F /  18.5 °C 53.6 °F /  12 °C 29.92in /  1013.1hPa East 2.0mph /  3.2km/h 3.0mph /  4.8km/h 66% 0.00in /  0mm 0.0 W/m2
00:42 65.3 °F /  18.5 °C 53.6 °F /  12 °C 29.92in /  1013.1hPa East 2.0mph /  3.2km/h 3.0mph /  4.8km/h 66% 0.00in /  0mm 0.0 W/m2
00:48 65.3 °F /  18.5 °C 53.2 °F /  11.8 °C 29.92in /  1013.1hPa Calm   5.0mph /  8km/h 65% 0.00in /  0mm 0.0 W/m2
00:54 65.3 °F /  18.5 °C 53.2 °F /  11.8 °C 29.92in /  1013.1hPa Calm   6.0mph /  9.7km/h 65% 0.00in /  0mm 0.0 W/m2
01:00 65.5 °F /  18.6 °C 53.4 °F /  11.9 °C 29.93in /  1013.4hPa NE 2.0mph /  3.2km/h 4.0mph /  6.4km/h 65% 0.00in /  0mm 0.0 W/m2
01:06 65.5 °F /  18.6 °C 53.8 °F /  12.1 °C 29.93in /  1013.4hPa NNE 2.0mph /  3.2km/h 3.0mph /  4.8km/h 66% 0.00in /  0mm 0.0 W/m2
01:12 65.1 °F /  18.4 °C 53.1 °F /  11.7 °C 29.92in /  1013.1hPa ESE 2.9mph /  4.7km/h 3.0mph /  4.8km/h 65% 0.00in /  0mm 0.0 W/m2
01:18 64.9 °F /  18.3 °C 53.2 °F /  11.8 °C 29.92in /  1013.1hPa ENE 0.9mph /  1.4km/h 5.0mph /  8km/h 66% 0.00in /  0mm 0.0 W/m2
01:25 64.8 °F /  18.2 °C 53.1 °F /  11.7 °C 29.92in /  1013.1hPa ENE 0.9mph /  1.4km/h 2.0mph /  3.2km/h 66% 0.00in /  0mm 0.0 W/m2
01:31 64.6 °F /  18.1 °C 52.9 °F /  11.6 °C 29.92in /  1013.1hPa Calm   3.0mph /  4.8km/h 66% 0.00in /  0mm 0.0 W/m2
01:37 64.6 °F /  18.1 °C 52.9 °F /  11.6 °C 29.92in /  1013.1hPa NE 0.9mph /  1.4km/h 1.0mph /  1.6km/h 66% 0.00in /  0mm 0.0 W/m2
01:43 64.2 °F /  17.9 °C 52.7 °F /  11.5 °C 29.92in /  1013.1hPa Calm   3.0mph /  4.8km/h 66% 0.00in /  0mm 0.0 W/m2
01:49 64.2 °F /  17.9 °C 52.7 °F /  11.5 °C 29.92in /  1013.1hPa Calm   2.0mph /  3.2km/h 66% 0.00in /  0mm 0.0 W/m2
01:55 64.0 °F /  17.8 °C 52.5 °F /  11.4 °C 29.91in /  1012.8hPa Calm   1.0mph /  1.6km/h 66% 0.00in /  0mm 0.0 W/m2
02:01 63.9 °F /  17.7 °C 52.7 °F /  11.5 °C 29.91in /  1012.8hPa Calm   1.0mph /  1.6km/h 67% 0.00in /  0mm 0.0 W/m2
02:08 63.7 °F /  17.6 °C 52.5 °F /  11.4 °C 29.91in /  1012.8hPa Calm   2.0mph /  3.2km/h 67% 0.00in /  0mm 0.0 W/m2
02:14 63.3 °F /  17.4 °C 52.2 °F /  11.2 °C 29.91in /  1012.8hPa East 0.9mph /  1.4km/h 2.0mph /  3.2km/h 67% 0.00in /  0mm 0.0 W/m2
02:20 63.1 °F /  17.3 °C 52.3 °F /  11.3 °C 29.91in /  1012.8hPa Calm   1.0mph /  1.6km/h 68% 0.00in /  0mm 0.0 W/m2
02:26 63.0 °F /  17.2 °C 52.2 °F /  11.2 °C 29.90in /  1012.4hPa Calm     68% 0.00in /  0mm 0.0 W/m2
02:32 62.8 °F /  17.1 °C 52.0 °F /  11.1 °C 29.90in /  1012.4hPa Calm     68% 0.00in /  0mm 0.0 W/m2
02:38 62.4 °F /  16.9 °C 51.8 °F /  11 °C 29.90in /  1012.4hPa Calm   1.0mph /  1.6km/h 68% 0.00in /  0mm 0.0 W/m2
02:44 62.4 °F /  16.9 °C 51.8 °F /  11 °C 30.29in /  1025.6hPa Calm   2.0mph /  3.2km/h 68% 0.00in /  0mm 0.0 W/m2
02:50 62.2 °F /  16.8 °C 51.6 °F /  10.9 °C 30.29in /  1025.6hPa ESE 0.9mph /  1.4km/h 1.0mph /  1.6km/h 68% 0.00in /  0mm 0.0 W/m2
02:57 62.1 °F /  16.7 °C 51.4 °F /  10.8 °C 30.28in /  1025.3hPa Calm     68% 0.00in /  0mm 0.0 W/m2
03:03 62.1 °F /  16.7 °C 51.8 °F /  11 °C 30.29in /  1025.6hPa Calm     69% 0.00in /  0mm 0.0 W/m2
03:09 61.9 °F /  16.6 °C 51.6 °F /  10.9 °C 30.28in /  1025.3hPa Calm     69% 0.00in /  0mm 0.0 W/m2
03:15 61.3 °F /  16.3 °C 51.4 °F /  10.8 °C 30.28in /  1025.3hPa Calm     70% 0.00in /  0mm 0.0 W/m2
03:21 61.2 °F /  16.2 °C 51.3 °F /  10.7 °C 30.29in /  1025.6hPa Calm     70% 0.00in /  0mm 0.0 W/m2
03:27 60.8 °F /  16 °C 50.9 °F /  10.5 °C 30.28in /  1025.3hPa Calm     70% 0.00in /  0mm 0.0 W/m2
03:33 60.6 °F /  15.9 °C 51.1 °F /  10.6 °C 30.28in /  1025.3hPa Calm     71% 0.00in /  0mm 0.0 W/m2
03:39 60.4 °F /  15.8 °C 51.1 °F /  10.6 °C 30.29in /  1025.6hPa Calm   1.0mph /  1.6km/h 71% 0.00in /  0mm 0.0 W/m2
03:46 60.3 °F /  15.7 °C 50.9 °F /  10.5 °C 30.29in /  1025.6hPa Calm     71% 0.00in /  0mm 0.0 W/m2
03:52 60.3 °F /  15.7 °C 51.3 °F /  10.7 °C 30.28in /  1025.3hPa Calm   2.0mph /  3.2km/h 72% 0.00in /  0mm 0.0 W/m2
03:58 60.1 °F /  15.6 °C 51.1 °F /  10.6 °C 30.28in /  1025.3hPa Calm     72% 0.00in /  0mm 0.0 W/m2
04:04 60.1 °F /  15.6 °C 51.1 °F /  10.6 °C 30.28in /  1025.3hPa Calm   1.0mph /  1.6km/h 72% 0.00in /  0mm 0.0 W/m2
04:10 59.9 °F /  15.5 °C 50.9 °F /  10.5 °C 30.28in /  1025.3hPa Calm   1.0mph /  1.6km/h 72% 0.00in /  0mm 0.0 W/m2
04:16 59.9 °F /  15.5 °C 50.9 °F /  10.5 °C 30.28in /  1025.3hPa Calm     72% 0.00in /  0mm 0.0 W/m2
04:22 59.7 °F /  15.4 °C 50.7 °F /  10.4 °C 30.28in /  1025.3hPa Calm     72% 0.00in /  0mm 0.0 W/m2
04:28 59.7 °F /  15.4 °C 50.7 °F /  10.4 °C 30.28in /  1025.3hPa Calm   1.0mph /  1.6km/h 72% 0.00in /  0mm 0.0 W/m2
04:35 59.7 °F /  15.4 °C 50.7 °F /  10.4 °C 30.28in /  1025.3hPa Calm   1.0mph /  1.6km/h 72% 0.00in /  0mm 0.0 W/m2
04:41 59.7 °F /  15.4 °C 51.1 °F /  10.6 °C 30.28in /  1025.3hPa Calm   1.0mph /  1.6km/h 73% 0.00in /  0mm 0.0 W/m2
04:47 59.7 °F /  15.4 °C 51.1 °F /  10.6 °C 30.28in /  1025.3hPa Calm   2.0mph /  3.2km/h 73% 0.00in /  0mm 0.0 W/m2
04:53 59.7 °F /  15.4 °C 51.1 °F /  10.6 °C 30.28in /  1025.3hPa ENE 2.0mph /  3.2km/h 2.0mph /  3.2km/h 73% 0.00in /  0mm 0.0 W/m2
04:59 59.5 °F /  15.3 °C 50.9 °F /  10.5 °C 30.28in /  1025.3hPa Calm   4.0mph /  6.4km/h 73% 0.00in /  0mm 0.0 W/m2
05:05 59.4 °F /  15.2 °C 50.7 °F /  10.4 °C 30.29in /  1025.6hPa Calm   4.0mph /  6.4km/h 73% 0.00in /  0mm 0.0 W/m2
05:12 59.4 °F /  15.2 °C 50.7 °F /  10.4 °C 30.29in /  1025.6hPa East 0.9mph /  1.4km/h 3.0mph /  4.8km/h 73% 0.00in /  0mm 0.0 W/m2
05:18 59.2 °F /  15.1 °C 50.9 °F /  10.5 °C 30.29in /  1025.6hPa Calm   1.0mph /  1.6km/h 74% 0.00in /  0mm 0.0 W/m2
05:24 59.0 °F /  15 °C 50.7 °F /  10.4 °C 30.29in /  1025.6hPa Calm     74% 0.00in /  0mm 0.0 W/m2
05:30 58.8 °F /  14.9 °C 50.5 °F /  10.3 °C 30.29in /  1025.6hPa Calm   1.0mph /  1.6km/h 74% 0.00in /  0mm 0.0 W/m2
05:36 58.8 °F /  14.9 °C 50.9 °F /  10.5 °C 30.30in /  1026hPa Calm   1.0mph /  1.6km/h 75% 0.00in /  0mm 0.0 W/m2
05:42 58.6 °F /  14.8 °C 50.7 °F /  10.4 °C 30.30in /  1026hPa Calm   1.0mph /  1.6km/h 75% 0.00in /  0mm 0.0 W/m2
05:48 58.6 °F /  14.8 °C 50.7 °F /  10.4 °C 30.30in /  1026hPa Calm     75% 0.00in /  0mm 0.0 W/m2
05:54 58.5 °F /  14.7 °C 50.2 °F /  10.1 °C 30.30in /  1026hPa ENE 2.0mph /  3.2km/h 2.0mph /  3.2km/h 74% 0.00in /  0mm 0.0 W/m2
06:01 58.5 °F /  14.7 °C 50.2 °F /  10.1 °C 30.30in /  1026hPa Calm   1.0mph /  1.6km/h 74% 0.00in /  0mm 0.0 W/m2
06:07 58.6 °F /  14.8 °C 50.4 °F /  10.2 °C 30.30in /  1026hPa Calm     74% 0.00in /  0mm 0.0 W/m2
06:13 58.6 °F /  14.8 °C 50.7 °F /  10.4 °C 30.30in /  1026hPa Calm     75% 0.00in /  0mm 0.0 W/m2
06:19 58.6 °F /  14.8 °C 50.7 °F /  10.4 °C 30.30in /  1026hPa Calm   1.0mph /  1.6km/h 75% 0.00in /  0mm 0.0 W/m2
06:25 58.6 °F /  14.8 °C 50.7 °F /  10.4 °C 30.30in /  1026hPa Calm     75% 0.00in /  0mm 0.0 W/m2
06:31 58.6 °F /  14.8 °C 50.7 °F /  10.4 °C 30.31in /  1026.3hPa Calm     75% 0.00in /  0mm 0.0 W/m2
06:37 58.5 °F /  14.7 °C 50.5 °F /  10.3 °C 30.31in /  1026.3hPa SE 2.0mph /  3.2km/h 3.0mph /  4.8km/h 75% 0.00in /  0mm 0.0 W/m2
06:43 58.5 °F /  14.7 °C 50.5 °F /  10.3 °C 30.31in /  1026.3hPa Calm   1.0mph /  1.6km/h 75% 0.00in /  0mm 0.0 W/m2
06:50 58.6 °F /  14.8 °C 50.7 °F /  10.4 °C 30.31in /  1026.3hPa ENE 0.9mph /  1.4km/h 4.0mph /  6.4km/h 75% 0.00in /  0mm 0.0 W/m2
06:56 58.5 °F /  14.7 °C 50.5 °F /  10.3 °C 30.31in /  1026.3hPa Calm   1.0mph /  1.6km/h 75% 0.00in /  0mm 0.0 W/m2
07:02 58.5 °F /  14.7 °C 50.5 °F /  10.3 °C 30.31in /  1026.3hPa Calm     75% 0.00in /  0mm 5.0 W/m2
07:08 58.5 °F /  14.7 °C 50.5 °F /  10.3 °C 30.31in /  1026.3hPa NNE 2.9mph /  4.7km/h 4.0mph /  6.4km/h 75% 0.00in /  0mm 11.0 W/m2
07:14 58.5 °F /  14.7 °C 50.5 °F /  10.3 °C 30.32in /  1026.6hPa Calm   2.0mph /  3.2km/h 75% 0.00in /  0mm 18.0 W/m2
07:20 58.5 °F /  14.7 °C 50.9 °F /  10.5 °C 30.32in /  1026.6hPa Calm     76% 0.00in /  0mm 23.0 W/m2
07:26 58.5 °F /  14.7 °C 50.9 °F /  10.5 °C 30.32in /  1026.6hPa Calm   2.0mph /  3.2km/h 76% 0.00in /  0mm 26.0 W/m2
07:33 58.6 °F /  14.8 °C 51.1 °F /  10.6 °C 30.32in /  1026.6hPa NE 0.9mph /  1.4km/h 1.0mph /  1.6km/h 76% 0.00in /  0mm 28.0 W/m2
07:39 58.8 °F /  14.9 °C 51.3 °F /  10.7 °C 30.32in /  1026.6hPa East 0.9mph /  1.4km/h 3.0mph /  4.8km/h 76% 0.00in /  0mm 28.0 W/m2
07:45 59.2 °F /  15.1 °C 51.6 °F /  10.9 °C 30.33in /  1027hPa ENE 2.0mph /  3.2km/h 3.0mph /  4.8km/h 76% 0.00in /  0mm 28.0 W/m2
07:51 59.5 °F /  15.3 °C 51.6 °F /  10.9 °C 30.33in /  1027hPa Calm   2.0mph /  3.2km/h 75% 0.00in /  0mm 30.0 W/m2
07:57 59.9 °F /  15.5 °C 52.0 °F /  11.1 °C 30.33in /  1027hPa ENE 0.9mph /  1.4km/h 3.0mph /  4.8km/h 75% 0.00in /  0mm 32.0 W/m2
08:03 60.4 °F /  15.8 °C 52.5 °F /  11.4 °C 30.33in /  1027hPa Calm   1.0mph /  1.6km/h 75% 0.00in /  0mm 32.0 W/m2
08:09 61.2 °F /  16.2 °C 52.9 °F /  11.6 °C 30.33in /  1027hPa Calm   4.0mph /  6.4km/h 74% 0.00in /  0mm 32.0 W/m2
08:15 61.5 °F /  16.4 °C 52.7 °F /  11.5 °C 30.33in /  1027hPa Calm   2.0mph /  3.2km/h 73% 0.00in /  0mm 33.0 W/m2
08:21 62.2 °F /  16.8 °C 53.4 °F /  11.9 °C 30.33in /  1027hPa Calm   1.0mph /  1.6km/h 73% 0.00in /  0mm 35.0 W/m2
08:28 63.0 °F /  17.2 °C 52.2 °F /  11.2 °C 30.34in /  1027.3hPa East 2.0mph /  3.2km/h 3.0mph /  4.8km/h 68% 0.00in /  0mm 37.0 W/m2
08:34 63.9 °F /  17.7 °C 52.7 °F /  11.5 °C 30.34in /  1027.3hPa ENE 0.9mph /  1.4km/h 2.0mph /  3.2km/h 67% 0.00in /  0mm 39.0 W/m2
08:40 64.6 °F /  18.1 °C 52.5 °F /  11.4 °C 30.34in /  1027.3hPa Calm   4.0mph /  6.4km/h 65% 0.00in /  0mm 39.0 W/m2
08:46 65.7 °F /  18.7 °C 53.2 °F /  11.8 °C 30.33in /  1027hPa ENE 0.9mph /  1.4km/h 3.0mph /  4.8km/h 64% 0.00in /  0mm 40.0 W/m2
08:52 66.4 °F /  19.1 °C 52.5 °F /  11.4 °C 30.34in /  1027.3hPa Calm   4.0mph /  6.4km/h 61% 0.00in /  0mm 47.0 W/m2
08:58 67.3 °F /  19.6 °C 52.5 °F /  11.4 °C 30.34in /  1027.3hPa SE 0.9mph /  1.4km/h 3.0mph /  4.8km/h 59% 0.00in /  0mm 44.0 W/m2
09:04 67.6 °F /  19.8 °C 52.3 °F /  11.3 °C 30.34in /  1027.3hPa NNE 0.9mph /  1.4km/h 1.0mph /  1.6km/h 58% 0.00in /  0mm 44.0 W/m2
09:10 68.4 °F /  20.2 °C 52.5 °F /  11.4 °C 30.34in /  1027.3hPa ENE 0.9mph /  1.4km/h 3.0mph /  4.8km/h 57% 0.00in /  0mm 46.0 W/m2
09:17 68.9 °F /  20.5 °C 52.5 °F /  11.4 °C 30.34in /  1027.3hPa East 0.9mph /  1.4km/h 3.0mph /  4.8km/h 56% 0.00in /  0mm 47.0 W/m2
09:23 69.4 °F /  20.8 °C 52.5 °F /  11.4 °C 30.34in /  1027.3hPa North 2.9mph /  4.7km/h 4.0mph /  6.4km/h 55% 0.00in /  0mm 47.0 W/m2
09:29 70.0 °F /  21.1 °C 53.6 °F /  12 °C 30.34in /  1027.3hPa NE 4.0mph /  6.4km/h 8.0mph /  12.9km/h 56% 0.00in /  0mm 49.0 W/m2
09:35 70.5 °F /  21.4 °C 52.5 °F /  11.4 °C 30.34in /  1027.3hPa NE 2.0mph /  3.2km/h 4.0mph /  6.4km/h 53% 0.00in /  0mm 58.0 W/m2
09:41 71.1 °F /  21.7 °C 52.5 °F /  11.4 °C 30.34in /  1027.3hPa Calm   1.0mph /  1.6km/h 52% 0.00in /  0mm 62.0 W/m2
09:47 71.6 °F /  22 °C 53.1 °F /  11.7 °C 30.34in /  1027.3hPa NNW 2.0mph /  3.2km/h 4.0mph /  6.4km/h 52% 0.00in /  0mm 599.0 W/m2
09:54 72.7 °F /  22.6 °C 52.9 °F /  11.6 °C 30.34in /  1027.3hPa North 2.0mph /  3.2km/h 3.0mph /  4.8km/h 50% 0.00in /  0mm 633.0 W/m2
10:00 73.9 °F /  23.3 °C 52.5 °F /  11.4 °C 30.34in /  1027.3hPa NE 4.0mph /  6.4km/h 5.0mph /  8km/h 47% 0.00in /  0mm 645.0 W/m2
10:06 74.8 °F /  23.8 °C 52.7 °F /  11.5 °C 30.34in /  1027.3hPa NNW 0.9mph /  1.4km/h 3.0mph /  4.8km/h 46% 0.00in /  0mm 698.0 W/m2
10:12 75.6 °F /  24.2 °C 52.7 °F /  11.5 °C 30.34in /  1027.3hPa East 2.9mph /  4.7km/h 4.0mph /  6.4km/h 45% 0.00in /  0mm 680.0 W/m2
10:18 76.5 °F /  24.7 °C 52.9 °F /  11.6 °C 30.34in /  1027.3hPa Calm     44% 0.00in /  0mm 691.0 W/m2
10:24 77.2 °F /  25.1 °C 53.6 °F /  12 °C 30.34in /  1027.3hPa NNW 4.9mph /  7.9km/h 10.0mph /  16.1km/h 44% 0.00in /  0mm 707.0 W/m2
10:30 77.7 °F /  25.4 °C 52.9 °F /  11.6 °C 30.34in /  1027.3hPa ENE 2.9mph /  4.7km/h 7.0mph /  11.3km/h 42% 0.00in /  0mm 724.0 W/m2
10:36 78.3 °F /  25.7 °C 53.2 °F /  11.8 °C 30.33in /  1027hPa NW 0.9mph /  1.4km/h 1.0mph /  1.6km/h 42% 0.00in /  0mm 740.0 W/m2
10:42 78.4 °F /  25.8 °C 52.7 °F /  11.5 °C 30.33in /  1027hPa Calm   3.0mph /  4.8km/h 41% 0.00in /  0mm 773.0 W/m2
10:49 78.6 °F /  25.9 °C 52.9 °F /  11.6 °C 30.33in /  1027hPa Calm   3.0mph /  4.8km/h 41% 0.00in /  0mm 823.0 W/m2
10:55 78.4 °F /  25.8 °C 52.7 °F /  11.5 °C 30.32in /  1026.6hPa NE 6.0mph /  9.7km/h 9.0mph /  14.5km/h 41% 0.00in /  0mm 788.0 W/m2
11:01 79.2 °F /  26.2 °C 49.8 °F /  9.9 °C 30.32in /  1026.6hPa NW 2.0mph /  3.2km/h 7.0mph /  11.3km/h 36% 0.00in /  0mm 722.0 W/m2
11:07 79.9 °F /  26.6 °C 49.8 °F /  9.9 °C 30.32in /  1026.6hPa East 0.9mph /  1.4km/h 3.0mph /  4.8km/h 35% 0.00in /  0mm 877.0 W/m2
11:13 80.8 °F /  27.1 °C 50.5 °F /  10.3 °C 30.33in /  1027hPa North 10.1mph /  16.3km/h 10.1mph /  16.3km/h 35% 0.00in /  0mm 874.0 W/m2
11:19 80.6 °F /  27 °C 50.4 °F /  10.2 °C 30.32in /  1026.6hPa ENE 6.0mph /  9.7km/h 6.0mph /  9.7km/h 35% 0.00in /  0mm 311.0 W/m2
11:25 80.2 °F /  26.8 °C 50.9 °F /  10.5 °C 30.32in /  1026.6hPa SE 2.0mph /  3.2km/h 3.0mph /  4.8km/h 36% 0.00in /  0mm 462.0 W/m2
11:31 80.2 °F /  26.8 °C 50.2 °F /  10.1 °C 30.33in /  1027hPa NNE 4.9mph /  7.9km/h 8.0mph /  12.9km/h 35% 0.00in /  0mm 1088.0 W/m2
11:37 80.2 °F /  26.8 °C 50.2 °F /  10.1 °C 30.32in /  1026.6hPa NNE 2.9mph /  4.7km/h 7.0mph /  11.3km/h 35% 0.00in /  0mm 381.0 W/m2
11:43 80.4 °F /  26.9 °C 50.2 °F /  10.1 °C 30.32in /  1026.6hPa ENE 2.0mph /  3.2km/h 7.0mph /  11.3km/h 35% 0.00in /  0mm 977.0 W/m2
11:49 81.1 °F /  27.3 °C 50.9 °F /  10.5 °C 30.32in /  1026.6hPa Calm   10.0mph /  16.1km/h 35% 0.00in /  0mm 990.0 W/m2
11:55 81.1 °F /  27.3 °C 50.2 °F /  10.1 °C 30.32in /  1026.6hPa ENE 4.0mph /  6.4km/h 5.0mph /  8km/h 34% 0.00in /  0mm 947.0 W/m2
12:01 81.7 °F /  27.6 °C 52.2 °F /  11.2 °C 30.32in /  1026.6hPa ENE 6.0mph /  9.7km/h 9.0mph /  14.5km/h 36% 0.00in /  0mm 1002.0 W/m2
12:07 82.2 °F /  27.9 °C 51.1 °F /  10.6 °C 30.31in /  1026.3hPa NE 4.9mph /  7.9km/h 9.0mph /  14.5km/h 34% 0.00in /  0mm 979.0 W/m2
12:13 82.6 °F /  28.1 °C 50.5 °F /  10.3 °C 30.31in /  1026.3hPa NE 10.1mph /  16.3km/h 11.0mph /  17.7km/h 33% 0.00in /  0mm 1046.0 W/m2
12:19 82.6 °F /  28.1 °C 49.8 °F /  9.9 °C 30.31in /  1026.3hPa ENE 6.0mph /  9.7km/h 7.0mph /  11.3km/h 32% 0.00in /  0mm 988.0 W/m2
12:25 82.9 °F /  28.3 °C 50.0 °F /  10 °C 30.31in /  1026.3hPa East 2.0mph /  3.2km/h 9.0mph /  14.5km/h 32% 0.00in /  0mm 1016.0 W/m2
12:31 82.9 °F /  28.3 °C 49.3 °F /  9.6 °C 30.31in /  1026.3hPa ENE 2.0mph /  3.2km/h 9.0mph /  14.5km/h 31% 0.00in /  0mm 898.0 W/m2
12:37 82.8 °F /  28.2 °C 49.8 °F /  9.9 °C 30.30in /  1026hPa NNW 6.9mph /  11.1km/h 9.0mph /  14.5km/h 32% 0.00in /  0mm 976.0 W/m2
12:43 82.8 °F /  28.2 °C 49.1 °F /  9.5 °C 30.30in /  1026hPa ENE 4.9mph /  7.9km/h 6.0mph /  9.7km/h 31% 0.00in /  0mm 320.0 W/m2
12:49 82.9 °F /  28.3 °C 49.3 °F /  9.6 °C 30.30in /  1026hPa East 2.9mph /  4.7km/h 7.0mph /  11.3km/h 31% 0.00in /  0mm 1118.0 W/m2
12:55 83.3 °F /  28.5 °C 49.5 °F /  9.7 °C 30.30in /  1026hPa NNE 4.9mph /  7.9km/h 12.0mph /  19.3km/h 31% 0.00in /  0mm 279.0 W/m2
13:01 82.8 °F /  28.2 °C 48.2 °F /  9 °C 30.29in /  1025.6hPa NE 4.0mph /  6.4km/h 13.0mph /  20.9km/h 30% 0.00in /  0mm 343.0 W/m2
13:07 82.2 °F /  27.9 °C 49.5 °F /  9.7 °C 30.29in /  1025.6hPa NNE 2.0mph /  3.2km/h 6.0mph /  9.7km/h 32% 0.00in /  0mm 410.0 W/m2
13:13 82.8 °F /  28.2 °C 48.2 °F /  9 °C 30.29in /  1025.6hPa SE 0.9mph /  1.4km/h 14.0mph /  22.5km/h 30% 0.00in /  0mm 1151.0 W/m2
13:19 82.8 °F /  28.2 °C 48.2 °F /  9 °C 30.28in /  1025.3hPa SE 0.9mph /  1.4km/h 6.0mph /  9.7km/h 30% 0.00in /  0mm 1058.0 W/m2
13:25 82.9 °F /  28.3 °C 48.4 °F /  9.1 °C 30.28in /  1025.3hPa East 6.9mph /  11.1km/h 10.0mph /  16.1km/h 30% 0.00in /  0mm 1058.0 W/m2
13:31 82.9 °F /  28.3 °C 48.4 °F /  9.1 °C 30.28in /  1025.3hPa East 0.9mph /  1.4km/h 7.0mph /  11.3km/h 30% 0.00in /  0mm 1167.0 W/m2
13:37 82.9 °F /  28.3 °C 47.5 °F /  8.6 °C 30.28in /  1025.3hPa SE 2.0mph /  3.2km/h 7.0mph /  11.3km/h 29% 0.00in /  0mm 255.0 W/m2
13:43 82.6 °F /  28.1 °C 48.0 °F /  8.9 °C 30.28in /  1025.3hPa NE 2.0mph /  3.2km/h 7.0mph /  11.3km/h 30% 0.00in /  0mm 237.0 W/m2
13:49 82.0 °F /  27.8 °C 48.4 °F /  9.1 °C 30.27in /  1024.9hPa East 4.9mph /  7.9km/h 12.0mph /  19.3km/h 31% 0.00in /  0mm 1046.0 W/m2
13:55 82.6 °F /  28.1 °C 48.9 °F /  9.4 °C 30.27in /  1024.9hPa ESE 6.0mph /  9.7km/h 9.0mph /  14.5km/h 31% 0.00in /  0mm 1072.0 W/m2
14:01 83.3 °F /  28.5 °C 48.6 °F /  9.2 °C 30.27in /  1024.9hPa NNE 2.0mph /  3.2km/h 4.0mph /  6.4km/h 30% 0.00in /  0mm 424.0 W/m2
14:07 83.1 °F /  28.4 °C 47.7 °F /  8.7 °C 30.27in /  1024.9hPa NE 4.9mph /  7.9km/h 9.0mph /  14.5km/h 29% 0.00in /  0mm 281.0 W/m2
14:13 82.8 °F /  28.2 °C 48.2 °F /  9 °C 30.27in /  1024.9hPa East 8.9mph /  14.3km/h 9.0mph /  14.5km/h 30% 0.00in /  0mm 1028.0 W/m2
14:19 82.9 °F /  28.3 °C 47.5 °F /  8.6 °C 30.26in /  1024.6hPa East 2.0mph /  3.2km/h 11.0mph /  17.7km/h 29% 0.00in /  0mm 236.0 W/m2
14:25 82.6 °F /  28.1 °C 48.0 °F /  8.9 °C 30.26in /  1024.6hPa East 4.0mph /  6.4km/h 7.0mph /  11.3km/h 30% 0.00in /  0mm 309.0 W/m2
14:31 82.2 °F /  27.9 °C 47.7 °F /  8.7 °C 30.26in /  1024.6hPa NE 4.9mph /  7.9km/h 6.0mph /  9.7km/h 30% 0.00in /  0mm 302.0 W/m2
14:37 82.6 °F /  28.1 °C 48.0 °F /  8.9 °C 30.26in /  1024.6hPa ENE 2.0mph /  3.2km/h 6.0mph /  9.7km/h 30% 0.00in /  0mm 306.0 W/m2
14:43 82.9 °F /  28.3 °C 48.4 °F /  9.1 °C 30.25in /  1024.3hPa NNE 15.0mph /  24.1km/h 15.0mph /  24.1km/h 30% 0.00in /  0mm 979.0 W/m2
14:49 83.8 °F /  28.8 °C 48.2 °F /  9 °C 30.25in /  1024.3hPa SE 4.9mph /  7.9km/h 13.0mph /  20.9km/h 29% 0.00in /  0mm 826.0 W/m2
14:55 84.0 °F /  28.9 °C 48.4 °F /  9.1 °C 30.25in /  1024.3hPa SSE 8.1mph /  13km/h 14.0mph /  22.5km/h 29% 0.00in /  0mm 410.0 W/m2
15:01 83.7 °F /  28.7 °C 47.1 °F /  8.4 °C 30.25in /  1024.3hPa SE 6.9mph /  11.1km/h 11.0mph /  17.7km/h 28% 0.00in /  0mm 287.0 W/m2
15:07 83.1 °F /  28.4 °C 47.7 °F /  8.7 °C 30.25in /  1024.3hPa ESE 6.0mph /  9.7km/h 10.0mph /  16.1km/h 29% 0.00in /  0mm 294.0 W/m2
15:13 82.8 °F /  28.2 °C 48.2 °F /  9 °C 30.25in /  1024.3hPa East 8.1mph /  13km/h 8.1mph /  13km/h 30% 0.00in /  0mm 265.0 W/m2
15:19 82.8 °F /  28.2 °C 48.2 °F /  9 °C 30.24in /  1023.9hPa NNE 2.0mph /  3.2km/h 9.0mph /  14.5km/h 30% 0.00in /  0mm 863.0 W/m2
15:25 83.7 °F /  28.7 °C 47.1 °F /  8.4 °C 30.24in /  1023.9hPa East 4.0mph /  6.4km/h 6.0mph /  9.7km/h 28% 0.00in /  0mm 786.0 W/m2
15:31 84.4 °F /  29.1 °C 46.8 °F /  8.2 °C 30.24in /  1023.9hPa NNE 2.9mph /  4.7km/h 6.0mph /  9.7km/h 27% 0.00in /  0mm 325.0 W/m2
15:37 84.9 °F /  29.4 °C 48.2 °F /  9 °C 30.24in /  1023.9hPa ESE 6.0mph /  9.7km/h 11.0mph /  17.7km/h 28% 0.00in /  0mm 861.0 W/m2
15:43 85.3 °F /  29.6 °C 47.5 °F /  8.6 °C 30.25in /  1024.3hPa ENE 6.0mph /  9.7km/h 9.0mph /  14.5km/h 27% 0.00in /  0mm 199.0 W/m2
15:49 84.7 °F /  29.3 °C 47.1 °F /  8.4 °C 30.24in /  1023.9hPa SSE 2.0mph /  3.2km/h 8.0mph /  12.9km/h 27% 0.00in /  0mm 759.0 W/m2
15:55 84.7 °F /  29.3 °C 47.1 °F /  8.4 °C 30.24in /  1023.9hPa NNE 2.9mph /  4.7km/h 5.0mph /  8km/h 27% 0.00in /  0mm 181.0 W/m2
16:01 84.4 °F /  29.1 °C 46.8 °F /  8.2 °C 30.24in /  1023.9hPa SE 2.0mph /  3.2km/h 5.0mph /  8km/h 27% 0.00in /  0mm 214.0 W/m2
16:07 83.8 °F /  28.8 °C 47.3 °F /  8.5 °C 30.24in /  1023.9hPa NNE 2.0mph /  3.2km/h 10.0mph /  16.1km/h 28% 0.00in /  0mm 687.0 W/m2
16:13 84.0 °F /  28.9 °C 47.5 °F /  8.6 °C 30.24in /  1023.9hPa East 2.9mph /  4.7km/h 10.0mph /  16.1km/h 28% 0.00in /  0mm 675.0 W/m2
16:19 84.6 °F /  29.2 °C 47.8 °F /  8.8 °C 30.24in /  1023.9hPa ESE 2.9mph /  4.7km/h 7.0mph /  11.3km/h 28% 0.00in /  0mm 635.0 W/m2
16:25 84.7 °F /  29.3 °C 47.1 °F /  8.4 °C 30.24in /  1023.9hPa NE 2.9mph /  4.7km/h 9.0mph /  14.5km/h 27% 0.00in /  0mm 605.0 W/m2
16:31 84.9 °F /  29.4 °C 47.1 °F /  8.4 °C 30.24in /  1023.9hPa ENE 0.9mph /  1.4km/h 9.0mph /  14.5km/h 27% 0.00in /  0mm 223.0 W/m2
16:37 84.6 °F /  29.2 °C 46.9 °F /  8.3 °C 30.24in /  1023.9hPa East 2.0mph /  3.2km/h 9.0mph /  14.5km/h 27% 0.00in /  0mm 603.0 W/m2
16:43 84.6 °F /  29.2 °C 46.9 °F /  8.3 °C 30.24in /  1023.9hPa NE 6.0mph /  9.7km/h 8.0mph /  12.9km/h 27% 0.00in /  0mm 575.0 W/m2
16:49 84.4 °F /  29.1 °C 46.8 °F /  8.2 °C 30.24in /  1023.9hPa East 2.0mph /  3.2km/h 9.0mph /  14.5km/h 27% 0.00in /  0mm 571.0 W/m2
16:55 84.6 °F /  29.2 °C 45.9 °F /  7.7 °C 30.25in /  1024.3hPa East 6.9mph /  11.1km/h 12.0mph /  19.3km/h 26% 0.00in /  0mm 454.0 W/m2
17:01 84.4 °F /  29.1 °C 45.7 °F /  7.6 °C 30.24in /  1023.9hPa ESE 4.0mph /  6.4km/h 9.0mph /  14.5km/h 26% 0.00in /  0mm 480.0 W/m2
17:07 84.0 °F /  28.9 °C 46.4 °F /  8 °C 30.25in /  1024.3hPa SE 2.9mph /  4.7km/h 5.0mph /  8km/h 27% 0.00in /  0mm 128.0 W/m2
17:13 83.5 °F /  28.6 °C 46.9 °F /  8.3 °C 30.24in /  1023.9hPa East 0.9mph /  1.4km/h 5.0mph /  8km/h 28% 0.00in /  0mm 88.0 W/m2
17:19 82.2 °F /  27.9 °C 45.9 °F /  7.7 °C 30.24in /  1023.9hPa Calm   5.0mph /  8km/h 28% 0.00in /  0mm 74.0 W/m2
17:25 81.7 °F /  27.6 °C 46.4 °F /  8 °C 30.24in /  1023.9hPa Calm   5.0mph /  8km/h 29% 0.00in /  0mm 62.0 W/m2
17:31 81.0 °F /  27.2 °C 45.7 °F /  7.6 °C 30.24in /  1023.9hPa East 4.9mph /  7.9km/h 5.0mph /  8km/h 29% 0.00in /  0mm 63.0 W/m2
17:37 80.4 °F /  26.9 °C 46.2 °F /  7.9 °C 30.25in /  1024.3hPa SE 2.0mph /  3.2km/h 5.0mph /  8km/h 30% 0.00in /  0mm 58.0 W/m2
17:43 80.2 °F /  26.8 °C 46.9 °F /  8.3 °C 30.25in /  1024.3hPa East 2.0mph /  3.2km/h 9.0mph /  14.5km/h 31% 0.00in /  0mm 93.0 W/m2
17:49 79.9 °F /  26.6 °C 45.7 °F /  7.6 °C 30.25in /  1024.3hPa NE 2.9mph /  4.7km/h 10.0mph /  16.1km/h 30% 0.00in /  0mm 207.0 W/m2
17:55 80.1 °F /  26.7 °C 45.9 °F /  7.7 °C 30.25in /  1024.3hPa East 4.0mph /  6.4km/h 8.0mph /  12.9km/h 30% 0.00in /  0mm 178.0 W/m2
18:01 80.2 °F /  26.8 °C 46.0 °F /  7.8 °C 30.25in /  1024.3hPa SE 0.9mph /  1.4km/h 6.0mph /  9.7km/h 30% 0.00in /  0mm 151.0 W/m2
18:07 80.4 °F /  26.9 °C 46.9 °F /  8.3 °C 30.25in /  1024.3hPa NNE 2.9mph /  4.7km/h 6.0mph /  9.7km/h 31% 0.00in /  0mm 118.0 W/m2
18:13 80.2 °F /  26.8 °C 47.7 °F /  8.7 °C 30.25in /  1024.3hPa SE 4.0mph /  6.4km/h 4.0mph /  6.4km/h 32% 0.00in /  0mm 35.0 W/m2
18:19 79.9 °F /  26.6 °C 47.3 °F /  8.5 °C 30.25in /  1024.3hPa Calm   6.0mph /  9.7km/h 32% 0.00in /  0mm 23.0 W/m2
18:25 79.3 °F /  26.3 °C 47.7 °F /  8.7 °C 30.25in /  1024.3hPa East 0.9mph /  1.4km/h 2.0mph /  3.2km/h 33% 0.00in /  0mm 19.0 W/m2
18:31 78.8 °F /  26 °C 47.3 °F /  8.5 °C 30.26in /  1024.6hPa SE 4.0mph /  6.4km/h 5.0mph /  8km/h 33% 0.00in /  0mm 19.0 W/m2
18:37 78.3 °F /  25.7 °C 47.7 °F /  8.7 °C 30.26in /  1024.6hPa East 2.0mph /  3.2km/h 2.0mph /  3.2km/h 34% 0.00in /  0mm 16.0 W/m2
18:43 77.5 °F /  25.3 °C 47.7 °F /  8.7 °C 30.26in /  1024.6hPa East 0.9mph /  1.4km/h 8.0mph /  12.9km/h 35% 0.00in /  0mm 11.0 W/m2
18:49 77.2 °F /  25.1 °C 47.5 °F /  8.6 °C 30.26in /  1024.6hPa Calm   5.0mph /  8km/h 35% 0.00in /  0mm 7.0 W/m2
18:55 76.6 °F /  24.8 °C 46.9 °F /  8.3 °C 30.26in /  1024.6hPa Calm   3.0mph /  4.8km/h 35% 0.00in /  0mm 0.0 W/m2
19:01 76.3 °F /  24.6 °C 47.3 °F /  8.5 °C 30.26in /  1024.6hPa ESE 0.9mph /  1.4km/h 4.0mph /  6.4km/h 36% 0.00in /  0mm 0.0 W/m2
19:07 75.7 °F /  24.3 °C 47.7 °F /  8.7 °C 30.26in /  1024.6hPa Calm   5.0mph /  8km/h 37% 0.00in /  0mm 0.0 W/m2
19:13 75.6 °F /  24.2 °C 47.5 °F /  8.6 °C 30.27in /  1024.9hPa Calm   4.0mph /  6.4km/h 37% 0.00in /  0mm 0.0 W/m2
19:19 75.0 °F /  23.9 °C 46.9 °F /  8.3 °C 30.27in /  1024.9hPa ESE 2.9mph /  4.7km/h 4.0mph /  6.4km/h 37% 0.00in /  0mm 0.0 W/m2
19:25 74.8 °F /  23.8 °C 46.8 °F /  8.2 °C 30.27in /  1024.9hPa Calm   3.0mph /  4.8km/h 37% 0.00in /  0mm 0.0 W/m2
19:31 74.5 °F /  23.6 °C 47.1 °F /  8.4 °C 30.27in /  1024.9hPa Calm   3.0mph /  4.8km/h 38% 0.00in /  0mm 0.0 W/m2
19:37 74.1 °F /  23.4 °C 47.7 °F /  8.7 °C 30.27in /  1024.9hPa SSE 0.9mph /  1.4km/h 2.0mph /  3.2km/h 39% 0.00in /  0mm 0.0 W/m2
19:43 73.8 °F /  23.2 °C 47.3 °F /  8.5 °C 30.27in /  1024.9hPa Calm   5.0mph /  8km/h 39% 0.00in /  0mm 0.0 W/m2
19:49 73.4 °F /  23 °C 47.7 °F /  8.7 °C 30.27in /  1024.9hPa ENE 0.9mph /  1.4km/h 1.0mph /  1.6km/h 40% 0.00in /  0mm 0.0 W/m2
19:55 73.0 °F /  22.8 °C 47.3 °F /  8.5 °C 30.28in /  1025.3hPa ENE 0.9mph /  1.4km/h 2.0mph /  3.2km/h 40% 0.00in /  0mm 0.0 W/m2
20:01 72.7 °F /  22.6 °C 47.7 °F /  8.7 °C 30.28in /  1025.3hPa Calm   3.0mph /  4.8km/h 41% 0.00in /  0mm 0.0 W/m2
20:07 72.3 °F /  22.4 °C 47.3 °F /  8.5 °C 30.28in /  1025.3hPa ENE 0.9mph /  1.4km/h 1.0mph /  1.6km/h 41% 0.00in /  0mm 0.0 W/m2
20:13 72.0 °F /  22.2 °C 47.7 °F /  8.7 °C 30.28in /  1025.3hPa ENE 2.0mph /  3.2km/h 3.0mph /  4.8km/h 42% 0.00in /  0mm 0.0 W/m2
20:19 71.6 °F /  22 °C 47.3 °F /  8.5 °C 30.28in /  1025.3hPa Calm   2.0mph /  3.2km/h 42% 0.00in /  0mm 0.0 W/m2
20:26 71.2 °F /  21.8 °C 47.7 °F /  8.7 °C 30.28in /  1025.3hPa ENE 2.0mph /  3.2km/h 4.0mph /  6.4km/h 43% 0.00in /  0mm 0.0 W/m2
20:32 70.9 °F /  21.6 °C 47.3 °F /  8.5 °C 30.29in /  1025.6hPa East 0.9mph /  1.4km/h 2.0mph /  3.2km/h 43% 0.00in /  0mm 0.0 W/m2
20:38 70.5 °F /  21.4 °C 47.5 °F /  8.6 °C 30.29in /  1025.6hPa NE 0.9mph /  1.4km/h 2.0mph /  3.2km/h 44% 0.00in /  0mm 0.0 W/m2
20:44 70.3 °F /  21.3 °C 47.5 °F /  8.6 °C 30.29in /  1025.6hPa Calm   3.0mph /  4.8km/h 44% 0.00in /  0mm 0.0 W/m2
20:50 70.2 °F /  21.2 °C 47.8 °F /  8.8 °C 30.29in /  1025.6hPa Calm   1.0mph /  1.6km/h 45% 0.00in /  0mm 0.0 W/m2
20:56 70.0 °F /  21.1 °C 47.7 °F /  8.7 °C 30.29in /  1025.6hPa SE 0.9mph /  1.4km/h 3.0mph /  4.8km/h 45% 0.00in /  0mm 0.0 W/m2
21:02 69.6 °F /  20.9 °C 47.8 °F /  8.8 °C 30.29in /  1025.6hPa East 2.0mph /  3.2km/h 2.0mph /  3.2km/h 46% 0.00in /  0mm 0.0 W/m2
21:09 69.3 °F /  20.7 °C 47.7 °F /  8.7 °C 30.29in /  1025.6hPa ENE 0.9mph /  1.4km/h 2.0mph /  3.2km/h 46% 0.00in /  0mm 0.0 W/m2
21:17 68.7 °F /  20.4 °C 47.7 °F /  8.7 °C 30.30in /  1026hPa Calm   3.0mph /  4.8km/h 47% 0.00in /  0mm 0.0 W/m2
21:23 68.5 °F /  20.3 °C 47.5 °F /  8.6 °C 30.30in /  1026hPa East 0.9mph /  1.4km/h 4.0mph /  6.4km/h 47% 0.00in /  0mm 0.0 W/m2
21:29 68.4 °F /  20.2 °C 47.3 °F /  8.5 °C 30.30in /  1026hPa East 2.0mph /  3.2km/h 3.0mph /  4.8km/h 47% 0.00in /  0mm 0.0 W/m2
21:35 68.2 °F /  20.1 °C 47.1 °F /  8.4 °C 30.30in /  1026hPa East 0.9mph /  1.4km/h 4.0mph /  6.4km/h 47% 0.00in /  0mm 0.0 W/m2
21:41 68.2 °F /  20.1 °C 47.1 °F /  8.4 °C 30.30in /  1026hPa East 0.9mph /  1.4km/h 6.0mph /  9.7km/h 47% 0.00in /  0mm 0.0 W/m2
21:47 68.4 °F /  20.2 °C 47.3 °F /  8.5 °C 30.30in /  1026hPa ENE 0.9mph /  1.4km/h 3.0mph /  4.8km/h 47% 0.00in /  0mm 0.0 W/m2
21:53 68.4 °F /  20.2 °C 47.3 °F /  8.5 °C 30.30in /  1026hPa ESE 0.9mph /  1.4km/h 5.0mph /  8km/h 47% 0.00in /  0mm 0.0 W/m2
21:59 68.4 °F /  20.2 °C 47.3 °F /  8.5 °C 30.30in /  1026hPa East 0.9mph /  1.4km/h 5.0mph /  8km/h 47% 0.00in /  0mm 0.0 W/m2
22:05 68.2 °F /  20.1 °C 47.1 °F /  8.4 °C 30.30in /  1026hPa Calm   3.0mph /  4.8km/h 47% 0.00in /  0mm 0.0 W/m2
22:11 68.0 °F /  20 °C 47.7 °F /  8.7 °C 30.30in /  1026hPa East 2.0mph /  3.2km/h 6.0mph /  9.7km/h 48% 0.00in /  0mm 0.0 W/m2
22:18 67.8 °F /  19.9 °C 47.5 °F /  8.6 °C 30.31in /  1026.3hPa ENE 2.0mph /  3.2km/h 7.0mph /  11.3km/h 48% 0.00in /  0mm 0.0 W/m2
22:24 67.6 °F /  19.8 °C 47.3 °F /  8.5 °C 30.31in /  1026.3hPa ENE 6.9mph /  11.1km/h 7.0mph /  11.3km/h 48% 0.00in /  0mm 0.0 W/m2
22:30 67.5 °F /  19.7 °C 47.1 °F /  8.4 °C 30.31in /  1026.3hPa East 0.9mph /  1.4km/h 5.0mph /  8km/h 48% 0.00in /  0mm 0.0 W/m2
22:36 67.5 °F /  19.7 °C 47.1 °F /  8.4 °C 30.31in /  1026.3hPa Calm   4.0mph /  6.4km/h 48% 0.00in /  0mm 0.0 W/m2
22:42 67.5 °F /  19.7 °C 47.1 °F /  8.4 °C 30.31in /  1026.3hPa Calm   3.0mph /  4.8km/h 48% 0.00in /  0mm 0.0 W/m2
22:48 67.3 °F /  19.6 °C 46.9 °F /  8.3 °C 30.30in /  1026hPa Calm   4.0mph /  6.4km/h 48% 0.00in /  0mm 0.0 W/m2
22:54 67.3 °F /  19.6 °C 46.9 °F /  8.3 °C 30.30in /  1026hPa Calm   4.0mph /  6.4km/h 48% 0.00in /  0mm 0.0 W/m2
23:00 67.3 °F /  19.6 °C 47.5 °F /  8.6 °C 30.31in /  1026.3hPa East 2.9mph /  4.7km/h 6.0mph /  9.7km/h 49% 0.00in /  0mm 0.0 W/m2
23:06 66.9 °F /  19.4 °C 47.1 °F /  8.4 °C 30.30in /  1026hPa East 2.9mph /  4.7km/h 5.0mph /  8km/h 49% 0.00in /  0mm 0.0 W/m2
23:12 66.9 °F /  19.4 °C 47.1 °F /  8.4 °C 30.30in /  1026hPa Calm   4.0mph /  6.4km/h 49% 0.00in /  0mm 0.0 W/m2
23:18 66.7 °F /  19.3 °C 46.9 °F /  8.3 °C 30.30in /  1026hPa ESE 2.0mph /  3.2km/h 4.0mph /  6.4km/h 49% 0.00in /  0mm 0.0 W/m2
23:24 66.7 °F /  19.3 °C 46.4 °F /  8 °C 30.30in /  1026hPa ESE 4.0mph /  6.4km/h 5.0mph /  8km/h 48% 0.00in /  0mm 0.0 W/m2
23:31 66.7 °F /  19.3 °C 46.9 °F /  8.3 °C 30.30in /  1026hPa East 2.9mph /  4.7km/h 4.0mph /  6.4km/h 49% 0.00in /  0mm 0.0 W/m2
23:37 66.7 °F /  19.3 °C 46.9 °F /  8.3 °C 30.30in /  1026hPa Calm   6.0mph /  9.7km/h 49% 0.00in /  0mm 0.0 W/m2
23:43 66.6 °F /  19.2 °C 46.8 °F /  8.2 °C 30.30in /  1026hPa NE 2.0mph /  3.2km/h 5.0mph /  8km/h 49% 0.00in /  0mm 0.0 W/m2
23:49 66.6 °F /  19.2 °C 46.8 °F /  8.2 °C 30.30in /  1026hPa ESE 4.9mph /  7.9km/h 6.0mph /  9.7km/h 49% 0.00in /  0mm 0.0 W/m2
23:55 66.4 °F /  19.1 °C 46.6 °F /  8.1 °C 30.30in /  1026hPa Calm   8.0mph /  12.9km/h 49% 0.00in /  0mm 0.0 W/m2
Olympia, Windhoek, Namibia
Compliments of Weather Underground - 3 mb